sensor_id;sensor_type;location;lat;lon;timestamp;pressure;altitude;pressure_sealevel;temperature;humidity
34034;BME280;63481;52.588;22.472;2022-11-15T00:00:41;100708.35;;;5.43;88.68
34034;BME280;63481;52.588;22.472;2022-11-15T00:01:32;100706.54;;;5.44;88.61
34034;BME280;63481;52.588;22.472;2022-11-15T00:02:21;100706.72;;;5.43;88.44
34034;BME280;63481;52.588;22.472;2022-11-15T00:03:14;100705.54;;;5.41;88.27
34034;BME280;63481;52.588;22.472;2022-11-15T00:04:04;100707.38;;;5.40;88.19
34034;BME280;63481;52.588;22.472;2022-11-15T00:04:54;100705.23;;;5.40;88.39
34034;BME280;63481;52.588;22.472;2022-11-15T00:05:44;100708.84;;;5.39;88.22
34034;BME280;63481;52.588;22.472;2022-11-15T00:06:34;100701.09;;;5.37;88.32
34034;BME280;63481;52.588;22.472;2022-11-15T00:07:26;100702.90;;;5.37;88.42
34034;BME280;63481;52.588;22.472;2022-11-15T00:08:16;100702.24;;;5.35;88.26
34034;BME280;63481;52.588;22.472;2022-11-15T00:09:06;100703.05;;;5.35;88.04
34034;BME280;63481;52.588;22.472;2022-11-15T00:09:58;100704.22;;;5.37;87.76
34034;BME280;63481;52.588;22.472;2022-11-15T00:10:57;100702.90;;;5.37;87.70
34034;BME280;63481;52.588;22.472;2022-11-15T00:11:47;100692.32;;;5.37;87.93
34034;BME280;63481;52.588;22.472;2022-11-15T00:12:38;100697.93;;;5.34;87.82
34034;BME280;63481;52.588;22.472;2022-11-15T00:13:28;100700.09;;;5.34;87.82
34034;BME280;63481;52.588;22.472;2022-11-15T00:14:18;100695.77;;;5.33;87.84
34034;BME280;63481;52.588;22.472;2022-11-15T00:15:08;100688.33;;;5.33;88.01
34034;BME280;63481;52.588;22.472;2022-11-15T00:16:00;100689.34;;;5.32;88.12
34034;BME280;63481;52.588;22.472;2022-11-15T00:16:50;100685.05;;;5.35;87.96
34034;BME280;63481;52.588;22.472;2022-11-15T00:17:40;100687.70;;;5.35;88.03
34034;BME280;63481;52.588;22.472;2022-11-15T00:18:30;100681.23;;;5.33;88.03
34034;BME280;63481;52.588;22.472;2022-11-15T00:19:20;100684.70;;;5.34;87.96
34034;BME280;63481;52.588;22.472;2022-11-15T00:20:11;100686.86;;;5.34;88.01
34034;BME280;63481;52.588;22.472;2022-11-15T00:21:05;100687.01;;;5.33;88.01
34034;BME280;63481;52.588;22.472;2022-11-15T00:21:56;100687.35;;;5.34;88.03
34034;BME280;63481;52.588;22.472;2022-11-15T00:22:47;100682.89;;;5.34;87.96
34034;BME280;63481;52.588;22.472;2022-11-15T00:23:37;100678.59;;;5.33;88.12
34034;BME280;63481;52.588;22.472;2022-11-15T00:24:28;100686.03;;;5.34;88.30
34034;BME280;63481;52.588;22.472;2022-11-15T00:25:18;100679.59;;;5.32;88.35
34034;BME280;63481;52.588;22.472;2022-11-15T00:26:13;100676.77;;;5.34;88.31
34034;BME280;63481;52.588;22.472;2022-11-15T00:27:03;100680.74;;;5.34;88.24
34034;BME280;63481;52.588;22.472;2022-11-15T00:27:57;100682.55;;;5.33;88.19
34034;BME280;63481;52.588;22.472;2022-11-15T00:28:48;100680.74;;;5.34;88.29
34034;BME280;63481;52.588;22.472;2022-11-15T00:29:38;100685.05;;;5.35;88.42
34034;BME280;63481;52.588;22.472;2022-11-15T00:30:30;100682.89;;;5.34;88.57
34034;BME280;63481;52.588;22.472;2022-11-15T00:31:20;100682.55;;;5.33;88.59
34034;BME280;63481;52.588;22.472;2022-11-15T00:32:10;100681.58;;;5.34;88.52
34034;BME280;63481;52.588;22.472;2022-11-15T00:33:03;100682.06;;;5.34;88.47
34034;BME280;63481;52.588;22.472;2022-11-15T00:33:54;100676.28;;;5.34;88.59
34034;BME280;63481;52.588;22.472;2022-11-15T00:34:46;100676.28;;;5.34;88.59
34034;BME280;63481;52.588;22.472;2022-11-15T00:35:36;100677.12;;;5.35;88.53
34034;BME280;63481;52.588;22.472;2022-11-15T00:36:26;100673.15;;;5.35;88.70
34034;BME280;63481;52.588;22.472;2022-11-15T00:37:16;100674.47;;;5.35;88.69
34034;BME280;63481;52.588;22.472;2022-11-15T00:38:06;100674.62;;;5.33;88.67
34034;BME280;63481;52.588;22.472;2022-11-15T00:38:56;100676.42;;;5.33;88.71
34034;BME280;63481;52.588;22.472;2022-11-15T00:39:46;100675.80;;;5.35;88.72
34034;BME280;63481;52.588;22.472;2022-11-15T00:40:37;100675.45;;;5.34;88.66
34034;BME280;63481;52.588;22.472;2022-11-15T00:41:27;100668.35;;;5.34;88.73
34034;BME280;63481;52.588;22.472;2022-11-15T00:42:18;100669.19;;;5.35;88.78
34034;BME280;63481;52.588;22.472;2022-11-15T00:43:07;100667.86;;;5.35;88.79
34034;BME280;63481;52.588;22.472;2022-11-15T00:43:57;100666.69;;;5.33;88.86
34034;BME280;63481;52.588;22.472;2022-11-15T00:44:47;100668.84;;;5.34;89.08
34034;BME280;63481;52.588;22.472;2022-11-15T00:45:37;100658.75;;;5.33;89.17
34034;BME280;63481;52.588;22.472;2022-11-15T00:46:27;100658.75;;;5.33;89.13
34034;BME280;63481;52.588;22.472;2022-11-15T00:47:17;100659.09;;;5.34;89.07
34034;BME280;63481;52.588;22.472;2022-11-15T00:48:07;100659.93;;;5.35;88.92
34034;BME280;63481;52.588;22.472;2022-11-15T00:48:57;100660.91;;;5.34;88.92
34034;BME280;63481;52.588;22.472;2022-11-15T00:49:47;100656.94;;;5.34;88.96
34034;BME280;63481;52.588;22.472;2022-11-15T00:50:38;100659.58;;;5.34;89.04
34034;BME280;63481;52.588;22.472;2022-11-15T00:51:28;100656.11;;;5.33;89.13
34034;BME280;63481;52.588;22.472;2022-11-15T00:52:18;100659.09;;;5.34;89.11
34034;BME280;63481;52.588;22.472;2022-11-15T00:53:08;100653.47;;;5.33;89.01
34034;BME280;63481;52.588;22.472;2022-11-15T00:53:58;100652.97;;;5.34;89.05
34034;BME280;63481;52.588;22.472;2022-11-15T00:54:48;100650.33;;;5.34;89.13
34034;BME280;63481;52.588;22.472;2022-11-15T00:55:39;100648.35;;;5.32;89.22
34034;BME280;63481;52.588;22.472;2022-11-15T00:56:29;100651.48;;;5.31;89.03
34034;BME280;63481;52.588;22.472;2022-11-15T00:57:20;100649.19;;;5.32;88.95
34034;BME280;63481;52.588;22.472;2022-11-15T00:58:10;100647.86;;;5.32;89.03
34034;BME280;63481;52.588;22.472;2022-11-15T00:59:00;100647.03;;;5.32;89.20
34034;BME280;63481;52.588;22.472;2022-11-15T00:59:52;100653.95;;;5.33;89.39
34034;BME280;63481;52.588;22.472;2022-11-15T01:00:43;100648.35;;;5.32;89.62
34034;BME280;63481;52.588;22.472;2022-11-15T01:01:33;100647.51;;;5.35;89.72
34034;BME280;63481;52.588;22.472;2022-11-15T01:02:23;100644.37;;;5.36;89.45
34034;BME280;63481;52.588;22.472;2022-11-15T01:03:13;100651.65;;;5.34;89.29
34034;BME280;63481;52.588;22.472;2022-11-15T01:04:03;100645.36;;;5.31;89.37
34034;BME280;63481;52.588;22.472;2022-11-15T01:04:53;100642.06;;;5.29;89.40
34034;BME280;63481;52.588;22.472;2022-11-15T01:05:44;100648.81;;;5.27;89.38
34034;BME280;63481;52.588;22.472;2022-11-15T01:06:34;100642.87;;;5.25;89.07
34034;BME280;63481;52.588;22.472;2022-11-15T01:07:24;100642.87;;;5.25;89.07
34034;BME280;63481;52.588;22.472;2022-11-15T01:08:16;100641.55;;;5.25;89.17
34034;BME280;63481;52.588;22.472;2022-11-15T01:09:06;100638.41;;;5.26;89.05
34034;BME280;63481;52.588;22.472;2022-11-15T01:09:56;100638.77;;;5.27;89.00
34034;BME280;63481;52.588;22.472;2022-11-15T01:10:46;100633.94;;;5.22;88.77
34034;BME280;63481;52.588;22.472;2022-11-15T01:11:36;100632.30;;;5.21;88.73
34034;BME280;63481;52.588;22.472;2022-11-15T01:12:26;100627.81;;;5.22;88.75
34034;BME280;63481;52.588;22.472;2022-11-15T01:13:17;100628.48;;;5.20;88.70
34034;BME280;63481;52.588;22.472;2022-11-15T01:14:06;100631.13;;;5.20;88.68
34034;BME280;63481;52.588;22.472;2022-11-15T01:14:57;100631.13;;;5.20;88.84
34034;BME280;63481;52.588;22.472;2022-11-15T01:15:46;100626.84;;;5.19;89.03
34034;BME280;63481;52.588;22.472;2022-11-15T01:16:36;100620.23;;;5.19;89.02
34034;BME280;63481;52.588;22.472;2022-11-15T01:17:26;100627.16;;;5.20;88.95
34034;BME280;63481;52.588;22.472;2022-11-15T01:18:16;100622.88;;;5.19;88.95
34034;BME280;63481;52.588;22.472;2022-11-15T01:19:06;100621.88;;;5.20;88.83
34034;BME280;63481;52.588;22.472;2022-11-15T01:19:56;100616.27;;;5.23;88.80
34034;BME280;63481;52.588;22.472;2022-11-15T01:20:47;100619.89;;;5.22;88.81
34034;BME280;63481;52.588;22.472;2022-11-15T01:21:37;100617.09;;;5.23;88.97
34034;BME280;63481;52.588;22.472;2022-11-15T01:22:27;100615.12;;;5.21;89.05
34034;BME280;63481;52.588;22.472;2022-11-15T01:23:17;100614.59;;;5.22;89.23
34034;BME280;63481;52.588;22.472;2022-11-15T01:24:08;100614.59;;;5.22;89.28
34034;BME280;63481;52.588;22.472;2022-11-15T01:24:59;100608.16;;;5.20;89.23
34034;BME280;63481;52.588;22.472;2022-11-15T01:25:50;100610.31;;;5.21;89.18
34034;BME280;63481;52.588;22.472;2022-11-15T01:26:40;100604.69;;;5.20;89.31
34034;BME280;63481;52.588;22.472;2022-11-15T01:27:30;100607.67;;;5.21;89.20
34034;BME280;63481;52.588;22.472;2022-11-15T01:28:20;100600.23;;;5.20;89.21
34034;BME280;63481;52.588;22.472;2022-11-15T01:29:10;100599.58;;;5.18;89.23
34034;BME280;63481;52.588;22.472;2022-11-15T01:30:00;100606.50;;;5.19;89.15
34034;BME280;63481;52.588;22.472;2022-11-15T01:30:51;100594.95;;;5.20;89.17
34034;BME280;63481;52.588;22.472;2022-11-15T01:31:41;100600.72;;;5.20;89.33
34034;BME280;63481;52.588;22.472;2022-11-15T01:32:31;100598.26;;;5.18;89.37
34034;BME280;63481;52.588;22.472;2022-11-15T01:33:22;100599.58;;;5.18;89.26
34034;BME280;63481;52.588;22.472;2022-11-15T01:34:12;100603.20;;;5.17;89.37
34034;BME280;63481;52.588;22.472;2022-11-15T01:35:02;100602.71;;;5.18;89.43
34034;BME280;63481;52.588;22.472;2022-11-15T01:35:53;100594.78;;;5.18;89.55
34034;BME280;63481;52.588;22.472;2022-11-15T01:36:43;100600.06;;;5.18;89.44
34034;BME280;63481;52.588;22.472;2022-11-15T01:37:33;100597.91;;;5.17;89.35
34034;BME280;63481;52.588;22.472;2022-11-15T01:38:23;100593.11;;;5.17;89.46
34034;BME280;63481;52.588;22.472;2022-11-15T01:39:13;100593.95;;;5.17;89.35
34034;BME280;63481;52.588;22.472;2022-11-15T01:40:06;100595.12;;;5.19;89.61
34034;BME280;63481;52.588;22.472;2022-11-15T01:40:56;100597.77;;;5.19;89.63
34034;BME280;63481;52.588;22.472;2022-11-15T01:41:46;100594.44;;;5.17;89.67
34034;BME280;63481;52.588;22.472;2022-11-15T01:42:36;100589.98;;;5.17;89.75
34034;BME280;63481;52.588;22.472;2022-11-15T01:43:31;100587.02;;;5.16;89.83
34034;BME280;63481;52.588;22.472;2022-11-15T01:44:40;100587.83;;;5.17;89.89
34034;BME280;63481;52.588;22.472;2022-11-15T01:45:31;100587.02;;;5.16;89.85
34034;BME280;63481;52.588;22.472;2022-11-15T01:46:25;100585.36;;;5.15;89.90
34034;BME280;63481;52.588;22.472;2022-11-15T01:47:27;100585.84;;;5.15;89.80
34034;BME280;63481;52.588;22.472;2022-11-15T01:48:14;100585.84;;;5.15;89.85
34034;BME280;63481;52.588;22.472;2022-11-15T01:49:12;100584.52;;;5.15;89.92
34034;BME280;63481;52.588;22.472;2022-11-15T01:50:09;100580.56;;;5.15;89.85
34034;BME280;63481;52.588;22.472;2022-11-15T01:50:51;100583.20;;;5.15;89.95
34034;BME280;63481;52.588;22.472;2022-11-15T01:51:41;100577.08;;;5.14;90.00
34034;BME280;63481;52.588;22.472;2022-11-15T01:52:35;100583.20;;;5.15;89.92
34034;BME280;63481;52.588;22.472;2022-11-15T01:53:26;100576.11;;;5.15;89.92
34034;BME280;63481;52.588;22.472;2022-11-15T01:54:19;100571.31;;;5.15;90.12
34034;BME280;63481;52.588;22.472;2022-11-15T01:55:18;100572.80;;;5.13;90.18
34034;BME280;63481;52.588;22.472;2022-11-15T01:56:16;100567.17;;;5.12;90.05
34034;BME280;63481;52.588;22.472;2022-11-15T01:57:08;100566.34;;;5.12;90.06
34034;BME280;63481;52.588;22.472;2022-11-15T01:58:01;100571.31;;;5.11;90.22
34034;BME280;63481;52.588;22.472;2022-11-15T01:58:53;100567.36;;;5.11;90.13
34034;BME280;63481;52.588;22.472;2022-11-15T01:59:45;100566.03;;;5.11;90.21
34034;BME280;63481;52.588;22.472;2022-11-15T02:00:36;100564.37;;;5.10;90.32
34034;BME280;63481;52.588;22.472;2022-11-15T02:01:28;100560.89;;;5.09;90.28
34034;BME280;63481;52.588;22.472;2022-11-15T02:02:18;100562.70;;;5.09;90.31
34034;BME280;63481;52.588;22.472;2022-11-15T02:03:09;100556.09;;;5.09;90.36
34034;BME280;63481;52.588;22.472;2022-11-15T02:04:04;100555.26;;;5.08;90.32
34034;BME280;63481;52.588;22.472;2022-11-15T02:04:53;100559.08;;;5.10;90.35
34034;BME280;63481;52.588;22.472;2022-11-15T02:05:44;100553.30;;;5.10;90.56
34034;BME280;63481;52.588;22.472;2022-11-15T02:06:34;100548.51;;;5.10;90.61
34034;BME280;63481;52.588;22.472;2022-11-15T02:07:26;100548.66;;;5.08;90.71
34034;BME280;63481;52.588;22.472;2022-11-15T02:08:18;100544.86;;;5.07;90.62
34034;BME280;63481;52.588;22.472;2022-11-15T02:09:12;100550.98;;;5.07;90.59
34034;BME280;63481;52.588;22.472;2022-11-15T02:10:09;100543.89;;;5.08;90.58
34034;BME280;63481;52.588;22.472;2022-11-15T02:10:59;100544.38;;;5.07;90.59
34034;BME280;63481;52.588;22.472;2022-11-15T02:11:50;100546.53;;;5.08;90.62
34034;BME280;63481;52.588;22.472;2022-11-15T02:12:42;100539.92;;;5.08;90.70
34034;BME280;63481;52.588;22.472;2022-11-15T02:13:32;100538.60;;;5.08;90.83
34034;BME280;63481;52.588;22.472;2022-11-15T02:14:22;100542.05;;;5.08;90.83
34034;BME280;63481;52.588;22.472;2022-11-15T02:15:15;100543.55;;;5.07;90.89
34034;BME280;63481;52.588;22.472;2022-11-15T02:16:20;100540.73;;;5.04;90.84
34034;BME280;63481;52.588;22.472;2022-11-15T02:18:15;100544.88;;;5.03;90.78
34034;BME280;63481;52.588;22.472;2022-11-15T02:20:30;100536.11;;;5.02;90.44
34034;BME280;63481;52.588;22.472;2022-11-15T02:21:27;100533.96;;;5.02;90.51
34034;BME280;63481;52.588;22.472;2022-11-15T02:23:45;100532.64;;;5.02;90.65
34034;BME280;63481;52.588;22.472;2022-11-15T02:29:07;100534.61;;;4.96;90.18
34034;BME280;63481;52.588;22.472;2022-11-15T02:30:16;100528.16;;;4.98;90.30
34034;BME280;63481;52.588;22.472;2022-11-15T02:32:21;100529.00;;;4.99;90.58
34034;BME280;63481;52.588;22.472;2022-11-15T02:33:34;100525.70;;;4.97;90.80
34034;BME280;63481;52.588;22.472;2022-11-15T02:34:29;100525.70;;;4.97;90.80
34034;BME280;63481;52.588;22.472;2022-11-15T02:35:29;100526.33;;;4.95;90.90
34034;BME280;63481;52.588;22.472;2022-11-15T02:36:29;100522.38;;;4.95;90.75
34034;BME280;63481;52.588;22.472;2022-11-15T02:37:42;100528.83;;;4.96;90.68
34034;BME280;63481;52.588;22.472;2022-11-15T02:40:45;100526.33;;;4.95;90.81
34034;BME280;63481;52.588;22.472;2022-11-15T02:41:57;100519.23;;;4.95;90.65
34034;BME280;63481;52.588;22.472;2022-11-15T02:42:53;100522.20;;;4.92;90.62
34034;BME280;63481;52.588;22.472;2022-11-15T02:44:03;100510.98;;;4.90;90.57
34034;BME280;63481;52.588;22.472;2022-11-15T02:44:56;100515.12;;;4.89;90.70
34034;BME280;63481;52.588;22.472;2022-11-15T02:45:50;100515.12;;;4.89;90.70
34034;BME280;63481;52.588;22.472;2022-11-15T02:46:44;100498.73;;;4.81;90.77
34034;BME280;63481;52.588;22.472;2022-11-15T02:47:54;100498.73;;;4.81;90.77
34034;BME280;63481;52.588;22.472;2022-11-15T02:48:45;100489.66;;;4.79;91.13
34034;BME280;63481;52.588;22.472;2022-11-15T02:49:35;100489.66;;;4.79;91.13
34034;BME280;63481;52.588;22.472;2022-11-15T02:50:29;100507.02;;;4.90;90.89
34034;BME280;63481;52.588;22.472;2022-11-15T02:51:19;100487.85;;;4.80;90.82
34034;BME280;63481;52.588;22.472;2022-11-15T02:52:13;100487.85;;;4.80;90.82
34034;BME280;63481;52.588;22.472;2022-11-15T02:53:02;100499.43;;;4.91;90.91
34034;BME280;63481;52.588;22.472;2022-11-15T02:53:52;100503.05;;;4.90;90.93
34034;BME280;63481;52.588;22.472;2022-11-15T02:54:43;100499.09;;;4.90;91.02
34034;BME280;63481;52.588;22.472;2022-11-15T02:55:37;100499.92;;;4.91;91.13
34034;BME280;63481;52.588;22.472;2022-11-15T02:56:28;100498.59;;;4.91;91.15
34034;BME280;63481;52.588;22.472;2022-11-15T02:57:20;100494.63;;;4.91;91.10
34034;BME280;63481;52.588;22.472;2022-11-15T02:58:51;100490.67;;;4.91;91.05
34034;BME280;63481;52.588;22.472;2022-11-15T02:59:51;100492.64;;;4.93;91.04
34034;BME280;63481;52.588;22.472;2022-11-15T03:01:44;100463.41;;;4.82;91.41
34034;BME280;63481;52.588;22.472;2022-11-15T03:06:08;100478.45;;;4.94;91.40
34034;BME280;63481;52.588;22.472;2022-11-15T03:06:59;100479.78;;;4.94;91.42
34034;BME280;63481;52.588;22.472;2022-11-15T03:08:06;100478.45;;;4.94;91.56
34034;BME280;63481;52.588;22.472;2022-11-15T03:09:14;100476.79;;;4.93;91.41
34034;BME280;63481;52.588;22.472;2022-11-15T03:10:12;100475.16;;;4.92;91.34
34034;BME280;63481;52.588;22.472;2022-11-15T03:11:16;100459.45;;;4.82;91.29
34034;BME280;63481;52.588;22.472;2022-11-15T03:12:23;100472.83;;;4.93;91.30
34034;BME280;63481;52.588;22.472;2022-11-15T03:14:35;100475.96;;;4.92;91.44
34034;BME280;63481;52.588;22.472;2022-11-15T03:15:37;100471.50;;;4.93;91.44
34034;BME280;63481;52.588;22.472;2022-11-15T03:16:34;100454.98;;;4.87;91.49
34034;BME280;63481;52.588;22.472;2022-11-15T03:17:46;100464.59;;;4.92;91.46
34034;BME280;63481;52.588;22.472;2022-11-15T03:18:43;100464.59;;;4.92;91.56
34034;BME280;63481;52.588;22.472;2022-11-15T03:19:51;100460.63;;;4.92;91.61
34034;BME280;63481;52.588;22.472;2022-11-15T03:20:43;100457.15;;;4.91;91.64
34034;BME280;63481;52.588;22.472;2022-11-15T03:21:34;100461.95;;;4.92;91.67
34034;BME280;63481;52.588;22.472;2022-11-15T03:22:27;100456.66;;;4.92;91.69
34034;BME280;63481;52.588;22.472;2022-11-15T03:23:21;100458.47;;;4.91;91.73
34034;BME280;63481;52.588;22.472;2022-11-15T03:24:12;100445.89;;;4.81;91.61
34034;BME280;63481;52.588;22.472;2022-11-15T03:25:06;100456.31;;;4.91;91.71
34034;BME280;63481;52.588;22.472;2022-11-15T03:25:59;100459.80;;;4.91;91.75
34034;BME280;63481;52.588;22.472;2022-11-15T03:26:53;100458.96;;;4.91;91.70
34034;BME280;63481;52.588;22.472;2022-11-15T03:27:50;100458.96;;;4.91;91.71
34034;BME280;63481;52.588;22.472;2022-11-15T03:28:50;100452.36;;;4.91;91.80
34034;BME280;63481;52.588;22.472;2022-11-15T03:29:47;100457.46;;;4.92;91.89
34034;BME280;63481;52.588;22.472;2022-11-15T03:30:38;100453.67;;;4.91;91.87
34034;BME280;63481;52.588;22.472;2022-11-15T03:31:32;100443.59;;;4.90;92.02
34034;BME280;63481;52.588;22.472;2022-11-15T03:32:42;100443.59;;;4.90;92.02
34034;BME280;63481;52.588;22.472;2022-11-15T03:33:31;100434.20;;;4.84;91.98
34034;BME280;63481;52.588;22.472;2022-11-15T03:34:37;100442.29;;;4.86;91.99
34034;BME280;63481;52.588;22.472;2022-11-15T03:35:30;100443.94;;;4.83;91.96
34034;BME280;63481;52.588;22.472;2022-11-15T03:36:22;100440.46;;;4.83;91.92
34034;BME280;63481;52.588;22.472;2022-11-15T03:37:14;100428.57;;;4.74;91.94
34034;BME280;63481;52.588;22.472;2022-11-15T03:38:21;100433.20;;;4.80;91.94
34034;BME280;63481;52.588;22.472;2022-11-15T03:39:12;100430.22;;;4.79;92.00
34034;BME280;63481;52.588;22.472;2022-11-15T03:40:04;100432.36;;;4.84;92.03
34034;BME280;63481;52.588;22.472;2022-11-15T03:41:05;100432.36;;;4.84;92.03
34034;BME280;63481;52.588;22.472;2022-11-15T03:45:22;100412.72;;;4.74;92.03
34034;BME280;63481;52.588;22.472;2022-11-15T03:47:28;100423.63;;;4.84;92.17
34034;BME280;63481;52.588;22.472;2022-11-15T03:48:24;100428.23;;;4.81;92.15
34034;BME280;63481;52.588;22.472;2022-11-15T03:49:27;100429.24;;;4.80;92.12
34034;BME280;63481;52.588;22.472;2022-11-15T03:50:19;100417.35;;;4.80;92.18
34034;BME280;63481;52.588;22.472;2022-11-15T03:51:10;100423.29;;;4.83;92.19
34034;BME280;63481;52.588;22.472;2022-11-15T03:52:04;100407.26;;;4.76;92.25
34034;BME280;63481;52.588;22.472;2022-11-15T03:52:54;100416.34;;;4.81;92.23
34034;BME280;63481;52.588;22.472;2022-11-15T03:53:45;100416.69;;;4.83;92.23
34034;BME280;63481;52.588;22.472;2022-11-15T03:54:36;100407.92;;;4.82;92.27
34034;BME280;63481;52.588;22.472;2022-11-15T03:55:26;100412.06;;;4.80;92.26
34034;BME280;63481;52.588;22.472;2022-11-15T03:56:16;100401.50;;;4.80;92.16
34034;BME280;63481;52.588;22.472;2022-11-15T03:57:06;100406.27;;;4.81;92.25
34034;BME280;63481;52.588;22.472;2022-11-15T03:57:57;100406.78;;;4.80;92.24
34034;BME280;63481;52.588;22.472;2022-11-15T03:58:48;100406.61;;;4.82;92.30
34034;BME280;63481;52.588;22.472;2022-11-15T03:59:38;100403.13;;;4.81;92.34
34034;BME280;63481;52.588;22.472;2022-11-15T04:00:29;100404.80;;;4.83;92.42
34034;BME280;63481;52.588;22.472;2022-11-15T04:01:19;100401.81;;;4.81;92.46
34034;BME280;63481;52.588;22.472;2022-11-15T04:02:09;100402.64;;;4.82;92.39
34034;BME280;63481;52.588;22.472;2022-11-15T04:02:59;100405.28;;;4.82;92.37
34034;BME280;63481;52.588;22.472;2022-11-15T04:03:51;100395.70;;;4.81;92.35
34034;BME280;63481;52.588;22.472;2022-11-15T04:04:42;100393.05;;;4.81;92.38
34034;BME280;63481;52.588;22.472;2022-11-15T04:05:32;100387.28;;;4.81;92.45
34034;BME280;63481;52.588;22.472;2022-11-15T04:06:22;100389.92;;;4.81;92.45
34034;BME280;63481;52.588;22.472;2022-11-15T04:07:12;100387.13;;;4.83;92.47
34034;BME280;63481;52.588;22.472;2022-11-15T04:08:02;100395.55;;;4.83;92.59
34034;BME280;63481;52.588;22.472;2022-11-15T04:08:52;100382.67;;;4.84;92.59
34034;BME280;63481;52.588;22.472;2022-11-15T04:09:42;100389.77;;;4.83;92.61
34034;BME280;63481;52.588;22.472;2022-11-15T04:10:51;100388.11;;;4.82;92.62
34034;BME280;63481;52.588;22.472;2022-11-15T04:11:41;100387.96;;;4.84;92.59
34034;BME280;63481;52.588;22.472;2022-11-15T04:12:33;100395.89;;;4.84;92.62
34034;BME280;63481;52.588;22.472;2022-11-15T04:13:24;100398.01;;;4.84;92.62
34034;BME280;63481;52.588;22.472;2022-11-15T04:14:14;100392.72;;;4.84;92.70
34034;BME280;63481;52.588;22.472;2022-11-15T04:15:06;100395.88;;;4.79;92.68
34034;BME280;63481;52.588;22.472;2022-11-15T04:15:57;100400.67;;;4.80;92.63
34034;BME280;63481;52.588;22.472;2022-11-15T04:16:47;100399.00;;;4.79;92.55
34034;BME280;63481;52.588;22.472;2022-11-15T04:17:45;100391.56;;;4.78;92.50
34034;BME280;63481;52.588;22.472;2022-11-15T04:18:35;100394.55;;;4.79;92.57
34034;BME280;63481;52.588;22.472;2022-11-15T04:19:26;100394.38;;;4.81;92.66
34034;BME280;63481;52.588;22.472;2022-11-15T04:20:34;100379.20;;;4.71;92.71
34034;BME280;63481;52.588;22.472;2022-11-15T04:21:42;100379.20;;;4.71;92.71
34034;BME280;63481;52.588;22.472;2022-11-15T04:22:55;100396.22;;;4.80;92.63
34034;BME280;63481;52.588;22.472;2022-11-15T04:24:04;100395.39;;;4.80;92.55
34034;BME280;63481;52.588;22.472;2022-11-15T04:24:56;100396.22;;;4.80;92.65
34034;BME280;63481;52.588;22.472;2022-11-15T04:25:50;100389.92;;;4.81;93.15
34034;BME280;63481;52.588;22.472;2022-11-15T04:26:41;100389.92;;;4.81;93.15
34034;BME280;63481;52.588;22.472;2022-11-15T04:27:31;100394.89;;;4.80;92.75
34034;BME280;63481;52.588;22.472;2022-11-15T04:28:21;100396.85;;;4.78;92.60
34034;BME280;63481;52.588;22.472;2022-11-15T04:29:11;100398.86;;;4.80;92.51
34034;BME280;63481;52.588;22.472;2022-11-15T04:30:20;100395.20;;;4.81;92.50
34034;BME280;63481;52.588;22.472;2022-11-15T04:31:10;100401.83;;;4.86;92.55
34034;BME280;63481;52.588;22.472;2022-11-15T04:32:03;100392.07;;;4.82;92.47
34034;BME280;63481;52.588;22.472;2022-11-15T04:32:53;100392.07;;;4.82;92.47
34034;BME280;63481;52.588;22.472;2022-11-15T04:33:43;100393.88;;;4.81;92.42
34034;BME280;63481;52.588;22.472;2022-11-15T04:34:33;100399.34;;;4.80;92.39
34034;BME280;63481;52.588;22.472;2022-11-15T04:35:24;100393.55;;;4.85;92.49
34034;BME280;63481;52.588;22.472;2022-11-15T04:36:14;100382.34;;;4.83;92.62
34034;BME280;63481;52.588;22.472;2022-11-15T04:37:23;100385.65;;;4.80;92.59
34034;BME280;63481;52.588;22.472;2022-11-15T04:38:13;100384.33;;;4.80;92.62
34034;BME280;63481;52.588;22.472;2022-11-15T04:39:03;100373.76;;;4.80;92.66
34034;BME280;63481;52.588;22.472;2022-11-15T04:39:54;100376.88;;;4.76;92.67
34034;BME280;63481;52.588;22.472;2022-11-15T04:40:44;100367.65;;;4.72;92.62
34034;BME280;63481;52.588;22.472;2022-11-15T04:41:34;100373.74;;;4.76;92.73
34034;BME280;63481;52.588;22.472;2022-11-15T04:42:25;100369.78;;;4.76;92.74
34034;BME280;63481;52.588;22.472;2022-11-15T04:43:14;100369.78;;;4.76;92.78
34034;BME280;63481;52.588;22.472;2022-11-15T04:44:04;100375.06;;;4.76;92.50
34034;BME280;63481;52.588;22.472;2022-11-15T04:45:46;100369.63;;;4.78;92.79
34034;BME280;63481;52.588;22.472;2022-11-15T04:46:36;100366.99;;;4.78;92.88
34034;BME280;63481;52.588;22.472;2022-11-15T04:47:26;100359.70;;;4.76;92.97
34034;BME280;63481;52.588;22.472;2022-11-15T04:48:17;100366.48;;;4.74;92.96
34034;BME280;63481;52.588;22.472;2022-11-15T04:49:07;100364.19;;;4.75;92.98
34034;BME280;63481;52.588;22.472;2022-11-15T04:49:56;100354.11;;;4.75;93.02
34034;BME280;63481;52.588;22.472;2022-11-15T04:50:49;100352.11;;;4.73;93.02
34034;BME280;63481;52.588;22.472;2022-11-15T04:51:39;100353.94;;;4.76;93.03
34034;BME280;63481;52.588;22.472;2022-11-15T04:52:29;100351.63;;;4.77;92.91
34034;BME280;63481;52.588;22.472;2022-11-15T04:53:19;100351.94;;;4.78;92.82
34034;BME280;63481;52.588;22.472;2022-11-15T04:54:10;100355.25;;;4.76;92.81
34034;BME280;63481;52.588;22.472;2022-11-15T04:55:00;100351.94;;;4.78;92.82
34034;BME280;63481;52.588;22.472;2022-11-15T04:55:50;100353.60;;;4.79;92.80
34034;BME280;63481;52.588;22.472;2022-11-15T04:56:40;100358.55;;;4.78;92.76
34034;BME280;63481;52.588;22.472;2022-11-15T04:57:30;100352.78;;;4.71;92.94
34034;BME280;63481;52.588;22.472;2022-11-15T04:58:19;100352.78;;;4.71;92.94
34034;BME280;63481;52.588;22.472;2022-11-15T04:59:09;100351.62;;;4.73;92.79
34034;BME280;63481;52.588;22.472;2022-11-15T04:59:59;100350.97;;;4.71;92.78